createdAt,value
2023-03-21T00:02:13.197Z,29.30
2023-03-21T00:04:51.269Z,29.23
2023-03-21T00:07:20.997Z,28.60
2023-03-21T00:09:49.406Z,29.30
2023-03-21T00:12:21.017Z,30.63
2023-03-21T00:14:50.788Z,30.63
2023-03-21T00:17:22.363Z,30.80
2023-03-21T00:19:51.632Z,31.10
2023-03-21T00:22:19.999Z,30.23
2023-03-21T00:24:48.318Z,29.13
2023-03-21T00:27:42.634Z,27.83
2023-03-21T00:30:08.042Z,29.70
2023-03-21T00:32:42.827Z,28.23
2023-03-21T00:35:53.103Z,30.00
2023-03-21T00:38:08.478Z,31.80
2023-03-21T00:40:40.848Z,35.43
2023-03-21T00:43:17.717Z,34.93
2023-03-21T00:45:47.927Z,36.10
2023-03-21T00:48:19.115Z,35.80
2023-03-21T00:50:48.092Z,34.10
2023-03-21T00:53:16.912Z,34.50
2023-03-21T00:55:45.402Z,35.03
2023-03-21T00:58:13.753Z,34.17
2023-03-21T01:00:42.275Z,34.40
2023-03-21T01:03:24.392Z,36.30
2023-03-21T01:06:07.904Z,34.07
2023-03-21T01:08:50.999Z,33.60
2023-03-21T01:11:23.710Z,33.20
2023-03-21T01:13:59.832Z,33.50
2023-03-21T01:16:36.501Z,32.20
2023-03-21T01:19:22.076Z,32.00
2023-03-21T01:21:53.205Z,31.47
2023-03-21T01:24:22.063Z,31.53
2023-03-21T01:26:50.883Z,32.80
2023-03-21T01:29:19.376Z,32.73
2023-03-21T01:31:47.961Z,30.87
2023-03-21T01:34:17.814Z,31.17
2023-03-21T01:36:46.751Z,30.87
2023-03-21T01:39:19.297Z,28.53
2023-03-21T01:41:50.578Z,27.77
2023-03-21T01:44:31.051Z,29.07
2023-03-21T01:47:10.284Z,29.67
2023-03-21T01:49:53.475Z,27.20
2023-03-21T01:52:37.108Z,24.40
2023-03-21T01:55:17.393Z,24.60
2023-03-21T01:58:07.426Z,26.10
2023-03-21T02:01:09.095Z,25.13
2023-03-21T02:03:51.442Z,25.23
2023-03-21T02:06:50.742Z,24.73
2023-03-21T02:09:46.315Z,24.40
2023-03-21T02:12:18.755Z,25.80
2023-03-21T02:14:50.903Z,24.20
2023-03-21T02:17:39.378Z,26.00
2023-03-21T02:21:04.227Z,23.83
2023-03-21T02:24:23.362Z,25.37
2023-03-21T02:27:09.931Z,24.60
2023-03-21T02:30:50.804Z,27.47
2023-03-21T02:34:06.522Z,24.47
2023-03-21T02:36:57.046Z,23.73
2023-03-21T02:39:30.649Z,24.30
2023-03-21T02:42:08.394Z,23.17
2023-03-21T02:44:45.056Z,23.93
2023-03-21T02:47:21.117Z,21.57
2023-03-21T02:49:55.971Z,24.17
2023-03-21T02:52:38.535Z,25.97
2023-03-21T02:55:15.594Z,23.73
2023-03-21T02:58:13.824Z,24.63
2023-03-21T03:00:48.630Z,23.60
2023-03-21T03:03:34.553Z,23.30
2023-03-21T03:06:17.124Z,24.20
2023-03-21T03:09:08.445Z,23.97
2023-03-21T03:11:40.003Z,21.27
2023-03-21T03:14:53.098Z,21.77
2023-03-21T03:17:47.972Z,20.00
2023-03-21T03:20:27.264Z,18.03
2023-03-21T03:23:16.146Z,17.30
2023-03-21T03:25:52.513Z,17.37
2023-03-21T03:28:27.462Z,17.33
2023-03-21T03:31:09.254Z,17.17
2023-03-21T03:33:52.128Z,16.03
2023-03-21T03:36:32.201Z,16.83
2023-03-21T03:39:09.025Z,16.13
2023-03-21T03:44:40.534Z,16.17
2023-03-21T03:47:26.257Z,15.60
2023-03-21T03:50:09.890Z,16.03
2023-03-21T03:52:55.258Z,16.27
2023-03-21T03:55:28.450Z,16.83
2023-03-21T03:58:13.187Z,17.47
2023-03-21T04:00:49.468Z,16.30
2023-03-21T04:03:18.576Z,16.30
2023-03-21T04:05:47.428Z,16.20
2023-03-21T04:08:18.122Z,15.47
2023-03-21T04:10:51.999Z,16.20
2023-03-21T04:13:22.775Z,16.53
2023-03-21T04:16:13.407Z,15.50
2023-03-21T04:18:43.597Z,16.57
2023-03-21T04:21:14.589Z,15.53
2023-03-21T04:23:43.896Z,14.70
2023-03-21T04:26:12.739Z,14.00
2023-03-21T04:28:50.540Z,15.30
2023-03-21T04:31:36.154Z,15.90
2023-03-21T04:34:12.765Z,14.53
2023-03-21T04:36:47.270Z,15.10
2023-03-21T04:39:16.836Z,14.43
2023-03-21T04:41:49.847Z,14.60
2023-03-21T04:44:20.074Z,15.13
2023-03-21T04:46:48.681Z,13.20
2023-03-21T04:49:18.501Z,14.70
2023-03-21T04:51:47.022Z,13.63
2023-03-21T04:54:21.125Z,14.23
2023-03-21T04:56:49.509Z,13.90
2023-03-21T04:59:20.089Z,15.27
2023-03-21T05:01:50.117Z,16.00
2023-03-21T05:04:19.438Z,17.00
2023-03-21T05:06:47.936Z,14.63
2023-03-21T05:09:17.980Z,14.80
2023-03-21T05:11:46.609Z,15.43
2023-03-21T05:14:20.871Z,15.17
2023-03-21T05:16:53.488Z,16.50
2023-03-21T05:19:24.735Z,13.03
2023-03-21T05:21:54.006Z,14.10
2023-03-21T05:24:26.721Z,13.37
2023-03-21T05:26:56.511Z,14.67
2023-03-21T05:29:32.057Z,13.83
2023-03-21T05:32:04.373Z,13.60
2023-03-21T05:34:33.433Z,13.70
2023-03-21T05:37:02.429Z,13.50
2023-03-21T05:39:51.830Z,11.77
2023-03-21T05:42:30.792Z,12.50
2023-03-21T05:45:01.118Z,12.57
2023-03-21T05:47:32.662Z,12.90
2023-03-21T05:50:02.258Z,12.17
2023-03-21T05:52:32.165Z,11.90
2023-03-21T05:55:01.377Z,12.30
2023-03-21T05:57:29.970Z,11.87
2023-03-21T06:00:09.391Z,11.13
2023-03-21T06:02:56.193Z,10.90
2023-03-21T06:05:38.635Z,11.87
2023-03-21T06:08:10.274Z,11.33
2023-03-21T06:10:38.834Z,10.13
2023-03-21T06:13:07.455Z,10.60
2023-03-21T06:15:37.525Z,10.40
2023-03-21T06:18:12.461Z,10.23
2023-03-21T06:20:45.531Z,9.90
2023-03-21T06:23:14.002Z,10.30
2023-03-21T06:25:42.499Z,9.80
2023-03-21T06:28:10.922Z,9.97
2023-03-21T06:30:43.648Z,10.40
2023-03-21T06:33:20.082Z,9.37
2023-03-21T06:35:54.038Z,10.50
2023-03-21T06:38:24.226Z,10.73
2023-03-21T06:40:55.801Z,11.03
2023-03-21T06:46:02.310Z,10.37
2023-03-21T06:48:30.932Z,9.93
2023-03-21T06:50:59.954Z,11.13
2023-03-21T06:53:30.748Z,10.17
2023-03-21T06:56:16.176Z,10.03
2023-03-21T06:58:46.716Z,10.40
2023-03-21T07:01:32.586Z,10.47
2023-03-21T07:04:06.570Z,10.27
2023-03-21T07:06:36.148Z,9.90
2023-03-21T07:09:06.110Z,12.10
2023-03-21T07:11:38.218Z,10.20
2023-03-21T07:14:07.755Z,9.90
2023-03-21T07:16:37.640Z,9.83
2023-03-21T07:19:06.028Z,8.67
2023-03-21T07:21:34.359Z,9.43
2023-03-21T07:24:02.692Z,9.27
2023-03-21T07:26:31.056Z,10.07
2023-03-21T07:29:00.766Z,9.47
2023-03-21T07:31:29.656Z,10.67
2023-03-21T07:33:59.685Z,9.80
2023-03-21T07:36:28.223Z,11.13
2023-03-21T07:38:56.634Z,10.67
2023-03-21T07:41:26.162Z,12.27
2023-03-21T07:43:54.539Z,10.73
2023-03-21T07:46:22.877Z,11.67
2023-03-21T07:48:51.240Z,12.00
2023-03-21T07:51:20.931Z,13.20
2023-03-21T07:53:49.480Z,11.90
2023-03-21T07:56:17.831Z,12.87
2023-03-21T07:58:46.225Z,11.40
2023-03-21T08:01:14.621Z,12.57
2023-03-21T08:03:43.544Z,13.03
2023-03-21T08:06:12.448Z,14.47
2023-03-21T08:08:42.215Z,13.40
2023-03-21T08:11:12.313Z,14.20
2023-03-21T08:13:40.929Z,13.87
2023-03-21T08:16:12.718Z,12.90
2023-03-21T08:18:42.801Z,12.03
2023-03-21T08:21:11.467Z,14.80
2023-03-21T08:23:42.623Z,14.33
2023-03-21T08:26:11.419Z,14.33
2023-03-21T08:28:41.602Z,14.60
2023-03-21T08:31:12.303Z,14.10
2023-03-21T08:33:40.856Z,13.80
2023-03-21T08:36:11.862Z,14.50
2023-03-21T08:38:40.555Z,12.37
2023-03-21T08:41:10.643Z,13.67
2023-03-21T08:43:39.003Z,13.97
2023-03-21T08:46:08.309Z,12.60
2023-03-21T08:48:38.789Z,12.13
2023-03-21T08:51:07.587Z,12.30
2023-03-21T08:53:36.008Z,11.77
2023-03-21T08:56:04.396Z,11.47
2023-03-21T08:58:34.078Z,13.00
2023-03-21T09:01:02.436Z,10.77
2023-03-21T09:03:30.752Z,11.23
2023-03-21T09:05:59.844Z,12.17
2023-03-21T09:08:28.232Z,12.13
2023-03-21T09:10:57.992Z,11.60
2023-03-21T09:13:26.722Z,12.00
2023-03-21T09:15:58.306Z,11.37
2023-03-21T09:18:39.028Z,12.73
2023-03-21T09:21:12.826Z,10.37
2023-03-21T09:23:41.706Z,10.80
2023-03-21T09:26:10.574Z,10.30
2023-03-21T09:28:39.239Z,10.80
2023-03-21T09:31:11.911Z,10.53
2023-03-21T09:33:41.481Z,11.27
2023-03-21T09:36:14.173Z,10.43
2023-03-21T09:38:45.657Z,10.07
2023-03-21T09:41:33.579Z,11.50
2023-03-21T09:44:19.935Z,10.00
2023-03-21T09:46:55.003Z,10.17
2023-03-21T09:49:31.102Z,9.80
2023-03-21T09:52:03.652Z,10.00
2023-03-21T09:54:37.006Z,10.10
2023-03-21T09:57:16.075Z,10.13
2023-03-21T09:59:44.916Z,10.30
2023-03-21T10:02:36.746Z,8.90
2023-03-21T10:05:17.730Z,8.50
2023-03-21T10:07:54.284Z,9.60
2023-03-21T10:10:29.803Z,9.93
2023-03-21T10:12:58.524Z,8.87
2023-03-21T10:15:28.028Z,8.70
2023-03-21T10:18:02.135Z,9.30
2023-03-21T10:20:33.679Z,7.63
2023-03-21T10:23:06.722Z,8.30
2023-03-21T10:25:38.547Z,8.57
2023-03-21T10:28:10.671Z,7.60
2023-03-21T10:30:43.543Z,7.83
2023-03-21T10:33:20.634Z,8.00
2023-03-21T10:35:53.724Z,7.40
2023-03-21T10:38:25.829Z,7.00
2023-03-21T10:40:54.950Z,6.83
2023-03-21T10:43:37.949Z,8.23
2023-03-21T10:46:12.528Z,7.73
2023-03-21T10:48:47.070Z,7.30
2023-03-21T10:51:21.015Z,7.93
2023-03-21T10:53:55.088Z,7.90
2023-03-21T10:56:27.686Z,7.80
2023-03-21T10:58:59.248Z,7.17
2023-03-21T11:01:32.888Z,7.33
2023-03-21T11:04:09.553Z,7.40
2023-03-21T11:06:42.430Z,6.57
2023-03-21T11:09:16.816Z,7.47
2023-03-21T11:11:53.634Z,7.73
2023-03-21T11:14:44.735Z,9.57
2023-03-21T11:17:24.752Z,7.47
2023-03-21T11:19:58.538Z,8.13
2023-03-21T11:22:31.026Z,7.57
2023-03-21T11:25:03.708Z,7.73
2023-03-21T11:27:33.316Z,7.40
2023-03-21T11:30:05.309Z,7.10
2023-03-21T11:32:37.352Z,7.73
2023-03-21T11:35:15.159Z,9.17
2023-03-21T11:37:47.757Z,7.23
2023-03-21T11:40:25.659Z,7.77
2023-03-21T11:42:57.305Z,7.27
2023-03-21T11:45:28.200Z,6.93
2023-03-21T11:47:59.505Z,7.33
2023-03-21T11:50:36.335Z,7.80
2023-03-21T11:53:26.667Z,7.13
2023-03-21T11:56:11.737Z,6.60
2023-03-21T11:58:57.191Z,6.83
2023-03-21T12:01:35.200Z,5.83
2023-03-21T12:04:22.525Z,5.50
2023-03-21T12:06:57.668Z,6.60
2023-03-21T12:09:38.475Z,6.20
2023-03-21T12:12:39.091Z,6.50
2023-03-21T12:15:19.009Z,5.90
2023-03-21T12:18:00.321Z,5.70
2023-03-21T12:20:40.882Z,5.80
2023-03-21T12:23:43.363Z,5.87
2023-03-21T12:26:24.928Z,6.00
2023-03-21T12:29:15.221Z,6.30
2023-03-21T12:31:58.013Z,6.20
2023-03-21T12:35:09.063Z,6.80
2023-03-21T12:37:47.813Z,6.90
2023-03-21T12:40:33.965Z,6.50
2023-03-21T12:43:32.915Z,6.53
2023-03-21T12:46:05.190Z,7.47
2023-03-21T12:48:45.071Z,7.20
2023-03-21T12:51:16.949Z,6.30
2023-03-21T12:53:59.376Z,7.03
2023-03-21T12:56:35.353Z,7.23
2023-03-21T12:59:15.293Z,7.43
2023-03-21T13:01:45.423Z,7.20
2023-03-21T13:04:36.703Z,7.73
2023-03-21T13:07:10.529Z,9.20
2023-03-21T13:09:40.897Z,8.57
2023-03-21T13:12:32.108Z,9.30
2023-03-21T13:15:28.397Z,8.33
2023-03-21T13:18:05.878Z,8.37
2023-03-21T13:20:43.867Z,8.70
2023-03-21T13:23:13.570Z,8.27
2023-03-21T13:25:47.040Z,8.00
2023-03-21T13:28:23.214Z,7.70
2023-03-21T13:30:52.201Z,7.23
2023-03-21T13:33:26.306Z,7.23
2023-03-21T13:36:05.586Z,7.10
2023-03-21T13:38:36.501Z,7.43
2023-03-21T13:41:12.996Z,8.37
2023-03-21T13:43:46.446Z,7.33
2023-03-21T13:46:16.947Z,7.67
2023-03-21T13:49:00.175Z,8.00
2023-03-21T13:51:48.000Z,8.20
2023-03-21T13:54:27.462Z,8.30
2023-03-21T13:57:01.374Z,7.30
2023-03-21T13:59:44.309Z,9.27
2023-03-21T14:02:29.356Z,9.10
2023-03-21T14:05:06.051Z,7.43
2023-03-21T14:07:36.873Z,8.40
2023-03-21T14:10:18.596Z,9.20
2023-03-21T14:12:48.595Z,8.10
2023-03-21T14:15:24.124Z,8.43
2023-03-21T14:17:55.474Z,8.57
2023-03-21T14:20:27.650Z,8.47
2023-03-21T14:22:56.879Z,8.00
2023-03-21T14:25:37.155Z,8.50
2023-03-21T14:28:16.839Z,8.37
2023-03-21T14:30:51.157Z,8.20
2023-03-21T14:33:36.645Z,9.57
2023-03-21T14:36:11.742Z,8.47
2023-03-21T14:38:42.314Z,9.10
2023-03-21T14:41:24.442Z,8.43
2023-03-21T14:44:22.374Z,9.00
2023-03-21T14:46:54.053Z,8.77
2023-03-21T14:49:35.789Z,8.50
2023-03-21T14:52:09.800Z,7.70
2023-03-21T14:54:41.847Z,7.20
2023-03-21T14:57:14.804Z,8.50
2023-03-21T14:59:43.880Z,8.10
2023-03-21T15:02:20.414Z,7.40
2023-03-21T15:04:53.704Z,7.40
2023-03-21T15:07:28.849Z,6.70
2023-03-21T15:10:00.925Z,7.13
2023-03-21T15:12:29.742Z,9.17
2023-03-21T15:14:59.551Z,7.53
2023-03-21T15:17:30.633Z,7.80
2023-03-21T15:19:59.136Z,7.90
2023-03-21T15:22:34.237Z,9.50
2023-03-21T15:25:07.601Z,8.77
2023-03-21T15:27:41.347Z,9.27
2023-03-21T15:30:23.948Z,8.47
2023-03-21T15:32:54.290Z,9.77
2023-03-21T15:35:28.372Z,8.90
2023-03-21T15:37:58.663Z,8.80
2023-03-21T15:40:29.938Z,8.43
2023-03-21T15:43:16.356Z,8.40
2023-03-21T15:45:50.027Z,8.20
2023-03-21T15:48:26.482Z,7.40
2023-03-21T15:51:02.721Z,7.50
2023-03-21T15:53:34.417Z,6.90
2023-03-21T15:56:06.135Z,6.40
2023-03-21T15:58:37.731Z,8.03
2023-03-21T16:01:09.644Z,8.60
2023-03-21T16:03:46.614Z,11.30
2023-03-21T16:06:21.937Z,10.70
2023-03-21T16:08:53.377Z,9.30
2023-03-21T16:11:28.453Z,8.93
2023-03-21T16:13:57.817Z,8.30
2023-03-21T16:16:29.210Z,8.23
2023-03-21T16:19:02.150Z,7.73
2023-03-21T16:21:34.240Z,8.50
2023-03-21T16:24:03.244Z,8.50
2023-03-21T16:26:35.091Z,8.37
2023-03-21T16:29:03.681Z,8.17
2023-03-21T16:31:36.883Z,8.60
2023-03-21T16:34:07.144Z,7.13
2023-03-21T16:36:39.252Z,8.10
2023-03-21T16:39:19.619Z,8.70
2023-03-21T16:41:48.922Z,7.50
2023-03-21T16:44:17.452Z,7.70
2023-03-21T16:46:47.173Z,7.80
2023-03-21T16:49:27.119Z,7.97
2023-03-21T16:51:57.150Z,7.47
2023-03-21T16:54:25.977Z,7.70
2023-03-21T16:56:58.804Z,7.43
2023-03-21T16:59:27.774Z,7.83
2023-03-21T17:01:56.533Z,7.47
2023-03-21T17:04:26.873Z,7.70
2023-03-21T17:06:56.400Z,7.50
2023-03-21T17:09:27.961Z,7.77
2023-03-21T17:11:56.449Z,8.73
2023-03-21T17:14:25.486Z,9.00
2023-03-21T17:16:55.267Z,9.70
2023-03-21T17:19:26.452Z,9.33
2023-03-21T17:21:55.283Z,10.30
2023-03-21T17:24:26.051Z,9.50
2023-03-21T17:26:54.445Z,10.00
2023-03-21T17:29:22.789Z,10.10
2023-03-21T17:31:51.461Z,10.47
2023-03-21T17:34:20.436Z,10.17
2023-03-21T17:36:50.483Z,9.80
2023-03-21T17:39:22.744Z,10.30
2023-03-21T17:41:52.000Z,10.10
2023-03-21T17:44:21.196Z,10.13
2023-03-21T17:46:51.748Z,9.33
2023-03-21T17:49:21.334Z,10.60
2023-03-21T17:51:51.986Z,10.00
2023-03-21T17:54:20.361Z,9.60
2023-03-21T17:56:51.765Z,10.40
2023-03-21T17:59:20.161Z,10.20
2023-03-21T18:01:48.689Z,9.43
2023-03-21T18:04:17.129Z,10.00
2023-03-21T18:06:45.618Z,10.00
2023-03-21T18:09:19.878Z,9.93
2023-03-21T18:11:49.891Z,9.67
2023-03-21T18:14:25.507Z,9.33
2023-03-21T18:16:56.277Z,10.10
2023-03-21T18:19:24.947Z,9.87
2023-03-21T18:21:53.438Z,10.37
2023-03-21T18:24:23.204Z,9.90
2023-03-21T18:26:51.840Z,10.10
2023-03-21T18:30:50.430Z,9.60
2023-03-21T18:32:09.654Z,11.07
2023-03-21T18:34:40.348Z,11.30
2023-03-21T18:37:13.161Z,10.97
2023-03-21T18:39:44.525Z,12.97
2023-03-21T18:42:18.025Z,10.80
2023-03-21T18:44:49.933Z,10.47
2023-03-21T18:47:18.844Z,9.97
2023-03-21T18:50:12.679Z,9.70
2023-03-21T18:52:36.716Z,10.50
2023-03-21T18:55:09.019Z,11.00
2023-03-21T18:57:43.415Z,10.37
2023-03-21T19:00:22.861Z,11.00
2023-03-21T19:03:06.410Z,11.73
2023-03-21T19:05:43.041Z,12.13
2023-03-21T19:08:14.111Z,12.40
2023-03-21T19:10:45.245Z,11.87
2023-03-21T19:13:14.507Z,12.57
2023-03-21T19:15:54.067Z,14.23
2023-03-21T19:18:41.524Z,12.80
2023-03-21T19:21:12.460Z,12.87
2023-03-21T19:24:16.299Z,12.40
2023-03-21T19:26:33.013Z,12.80
2023-03-21T19:29:01.464Z,16.30
2023-03-21T19:31:29.908Z,13.03
2023-03-21T19:34:05.604Z,12.87
2023-03-21T19:36:34.714Z,14.10
2023-03-21T19:39:05.047Z,12.97
2023-03-21T19:41:36.861Z,13.70
2023-03-21T19:44:08.440Z,12.30
2023-03-21T19:46:36.931Z,12.73
2023-03-21T19:49:07.152Z,14.00
2023-03-21T19:51:35.988Z,12.10
2023-03-21T19:54:09.628Z,11.93
2023-03-21T19:56:47.763Z,12.07
2023-03-21T19:59:17.420Z,12.70
2023-03-21T20:01:48.943Z,13.50
2023-03-21T20:04:18.640Z,13.33
2023-03-21T20:06:47.834Z,13.60
2023-03-21T20:09:50.750Z,13.70
2023-03-21T20:12:08.384Z,15.10
2023-03-21T20:14:37.258Z,15.17
2023-03-21T20:17:07.122Z,16.33
2023-03-21T20:19:36.796Z,16.47
2023-03-21T20:22:20.219Z,15.43
2023-03-21T20:25:04.821Z,15.10
2023-03-21T20:27:39.163Z,15.80
2023-03-21T20:30:20.091Z,16.17
2023-03-21T20:32:49.551Z,13.90
2023-03-21T20:35:32.931Z,14.50
2023-03-21T20:38:13.965Z,14.40
2023-03-21T20:40:44.120Z,13.83
2023-03-21T20:44:04.969Z,13.30
2023-03-21T20:46:04.763Z,9.40
2023-03-21T20:48:34.449Z,9.40
2023-03-21T20:52:09.963Z,9.93
2023-03-21T20:53:59.183Z,9.07
2023-03-21T20:56:30.569Z,8.50
2023-03-21T20:59:17.656Z,7.90
2023-03-21T21:01:54.328Z,9.30
2023-03-21T21:04:44.099Z,7.80
2023-03-21T21:07:17.125Z,6.90
2023-03-21T21:09:46.418Z,7.60
2023-03-21T21:12:16.443Z,7.63
2023-03-21T21:14:48.411Z,8.63
2023-03-21T21:20:20.522Z,7.70
2023-03-21T21:23:00.004Z,8.00
2023-03-21T21:25:33.146Z,9.10
2023-03-21T21:28:03.206Z,8.70
2023-03-21T21:30:34.799Z,8.37
2023-03-21T21:33:05.470Z,7.27
2023-03-21T21:35:39.019Z,6.13
2023-03-21T21:38:12.815Z,6.30
2023-03-21T21:40:42.238Z,5.80
2023-03-21T21:43:12.968Z,6.60
2023-03-21T21:45:43.604Z,6.57
2023-03-21T21:48:12.760Z,5.47
2023-03-21T21:50:43.921Z,5.27
2023-03-21T21:53:19.160Z,6.00
2023-03-21T21:55:49.012Z,4.10
2023-03-21T21:58:21.843Z,4.90
2023-03-21T22:00:52.170Z,4.20
2023-03-21T22:03:22.358Z,4.53
2023-03-21T22:05:51.633Z,3.60
2023-03-21T22:08:21.394Z,3.37
2023-03-21T22:10:50.054Z,3.70
2023-03-21T22:13:18.866Z,3.87
2023-03-21T22:15:48.633Z,3.00
2023-03-21T22:18:18.347Z,3.47
2023-03-21T22:20:47.200Z,2.87
2023-03-21T22:23:16.133Z,3.07
2023-03-21T22:25:50.915Z,3.33
2023-03-21T22:28:23.582Z,3.23
2023-03-21T22:30:51.919Z,3.20
2023-03-21T22:33:25.116Z,3.80
2023-03-21T22:35:56.335Z,3.57
2023-03-21T22:38:25.518Z,3.80
2023-03-21T22:40:57.498Z,3.53
2023-03-21T22:43:26.472Z,4.07
2023-03-21T22:45:55.941Z,3.77
2023-03-21T22:48:25.749Z,3.10
2023-03-21T22:50:54.133Z,3.60
2023-03-21T22:53:22.564Z,3.90
2023-03-21T22:55:51.249Z,3.43
2023-03-21T22:58:20.030Z,3.93
2023-03-21T23:00:51.921Z,3.10
2023-03-21T23:03:21.550Z,3.17
2023-03-21T23:05:51.718Z,3.20
2023-03-21T23:08:21.436Z,3.10
2023-03-21T23:10:50.669Z,3.93
2023-03-21T23:13:19.156Z,3.57
2023-03-21T23:15:47.621Z,3.77
2023-03-21T23:18:17.736Z,2.83
2023-03-21T23:20:49.723Z,2.70
2023-03-21T23:23:20.079Z,3.10
2023-03-21T23:25:48.655Z,2.77
2023-03-21T23:28:17.722Z,2.97
2023-03-21T23:30:46.137Z,3.60
2023-03-21T23:35:43.655Z,2.40
2023-03-21T23:38:12.403Z,2.90
2023-03-21T23:40:42.401Z,2.80
2023-03-21T23:43:14.286Z,2.77
2023-03-21T23:45:42.794Z,2.73
2023-03-21T23:48:11.535Z,2.63
2023-03-21T23:50:40.204Z,2.43
2023-03-21T23:53:09.942Z,2.77
2023-03-21T23:55:41.619Z,2.70
2023-03-21T23:58:13.973Z,2.77
